Atlanta, Illinois
Current Conditions -  °F | °C
As of 10:15 AM on Sunday 21 Dec 2014 (Local Time) from KAAA Reporting Station
Overcast Overcast  
Wind Chill: 31°   Ceiling: 2600
Heat Index: 37°   Visibility: 10mi
Dew Point: 32°   Wind: 8mph
Humidity: 81%   Direction: 160°SSE
Pressure: 30.21"   Gusts: NA
Location:  40.26°N, 89.23°W
Report Text: KAAA 211615Z AUTO 16007KT 10SM OVC026 03/00 A3021 RMK AO2 T00300001
Loading
Personal Weather Stations






























Interactive Weather Map New forecast layout! Learn more

10-Day Weather Forecast

Advertisements
Track Severe Weather on mobile